Time;durP1;ratioP1;P1;durP2;ratioP2;P2;SDS_P1;SDS_P2;PMS_P1;PMS_P2;Temp;Humidity;BMP_temperature;BMP_pressure;BME280_temperature;BME280_humidity;BME280_pressure;Samples;Min_cycle;Max_cycle;Signal;HPM_P1;HPM_P2
2022/07/22 00:01:33;;;;;;;;;;;16.10;99.90;;;;;;5037218;28;19948;-80
2022/07/22 00:03:59;;;;;;;;;;;16.00;99.90;;;;;;5035628;28;19959;-81
2022/07/22 00:06:25;;;;;;;;;;;16.10;99.90;;;;;;5034802;28;20292;-82
2022/07/22 00:08:51;;;;;;;;;;;16.10;99.90;;;;;;5035402;28;19944;-80
2022/07/22 00:11:16;;;;;;;;;;;16.10;99.90;;;;;;5036771;28;19948;-81
2022/07/22 00:13:42;;;;;;;;;;;16.10;99.90;;;;;;5036050;28;20069;-82
2022/07/22 00:16:07;;;;;;;;;;;16.00;99.90;;;;;;5036152;28;19921;-81
2022/07/22 00:18:33;;;;;;;;;;;16.00;99.90;;;;;;5035007;28;19924;-81
2022/07/22 00:20:58;;;;;;;;;;;16.00;99.90;;;;;;5025566;28;19955;-83
2022/07/22 00:23:24;;;;;;;;;;;16.00;99.90;;;;;;5033116;28;19917;-81
2022/07/22 00:25:49;;;;;;;;;;;15.90;99.90;;;;;;5035921;28;19917;-80
2022/07/22 00:28:15;;;;;;;;;;;15.90;99.90;;;;;;5036286;28;19917;-81
2022/07/22 00:30:41;;;;;;;;;;;16.00;99.90;;;;;;5037028;28;20000;-93
2022/07/22 00:33:06;;;;;;;;;;;16.00;99.90;;;;;;5036849;28;19986;-82
2022/07/22 00:35:32;;;;;;;;;;;16.00;99.90;;;;;;5036395;28;19913;-79
2022/07/22 00:37:57;;;;;;;;;;;16.00;99.90;;;;;;5036931;28;20259;-81
2022/07/22 00:40:23;;;;;;;;;;;16.00;99.90;;;;;;5035323;28;20320;-80
2022/07/22 00:42:49;;;;;;;;;;;16.00;99.90;;;;;;5035381;28;19909;-81
2022/07/22 00:45:14;;;;;;;;;;;16.00;99.90;;;;;;5035663;28;19910;-82
2022/07/22 00:47:40;;;;;;;;;;;16.00;99.90;;;;;;5036171;28;19913;-82
2022/07/22 00:50:06;;;;;;;;;;;16.00;99.90;;;;;;5036574;28;19917;-82
2022/07/22 00:52:33;;;;;;;;;;;16.00;99.90;;;;;;5035793;28;19913;-81
2022/07/22 00:54:58;;;;;;;;;;;16.00;99.90;;;;;;5036739;28;19909;-81
2022/07/22 00:57:25;;;;;;;;;;;16.00;99.90;;;;;;5034985;28;20484;-82
2022/07/22 00:59:51;;;;;;;;;;;16.00;99.90;;;;;;5034865;28;19952;-81
2022/07/22 01:02:17;;;;;;;;;;;16.00;99.90;;;;;;5035184;28;19949;-82
2022/07/22 01:04:42;;;;;;;;;;;16.00;99.90;;;;;;5036068;28;20370;-81
2022/07/22 01:07:08;;;;;;;;;;;15.90;99.90;;;;;;5034072;28;20282;-80
2022/07/22 01:09:33;;;;;;;;;;;16.00;99.90;;;;;;5035892;28;19921;-79
2022/07/22 01:12:00;;;;;;;;;;;15.90;99.90;;;;;;5033461;28;19994;-82
2022/07/22 01:14:26;;;;;;;;;;;15.90;99.90;;;;;;5033700;28;20330;-80
2022/07/22 01:16:51;;;;;;;;;;;15.90;99.90;;;;;;5034566;28;19921;-80
2022/07/22 01:19:17;;;;;;;;;;;15.90;99.90;;;;;;5034438;28;20312;-81
2022/07/22 01:21:42;;;;;;;;;;;15.90;99.90;;;;;;5035360;28;19916;-81
2022/07/22 01:24:08;;;;;;;;;;;15.90;99.90;;;;;;5034678;28;19920;-81
2022/07/22 01:26:33;;;;;;;;;;;15.90;99.90;;;;;;5035780;28;19964;-82
2022/07/22 01:28:59;;;;;;;;;;;15.90;99.90;;;;;;5034735;28;19909;-82
2022/07/22 01:31:25;;;;;;;;;;;15.80;99.90;;;;;;5035516;28;19913;-85
2022/07/22 01:33:50;;;;;;;;;;;15.90;99.90;;;;;;5036082;28;19928;-82
2022/07/22 01:36:16;;;;;;;;;;;15.90;99.90;;;;;;5035265;28;19915;-83
2022/07/22 01:38:42;;;;;;;;;;;15.90;99.90;;;;;;5035700;28;19909;-80
2022/07/22 01:41:07;;;;;;;;;;;16.00;99.90;;;;;;5035071;28;20211;-82
2022/07/22 01:43:33;;;;;;;;;;;15.90;99.90;;;;;;5035858;28;19917;-82
2022/07/22 01:45:59;;;;;;;;;;;15.90;99.90;;;;;;5035758;28;20211;-84
2022/07/22 01:48:24;;;;;;;;;;;15.90;99.90;;;;;;5033730;28;19936;-83
2022/07/22 01:50:50;;;;;;;;;;;15.90;99.90;;;;;;5033947;28;19913;-79
2022/07/22 01:53:16;;;;;;;;;;;15.90;99.90;;;;;;5022198;28;20393;-83
2022/07/22 01:55:41;;;;;;;;;;;15.90;99.90;;;;;;5034296;28;19909;-82
2022/07/22 01:58:07;;;;;;;;;;;15.90;99.90;;;;;;5034210;28;19996;-83
2022/07/22 02:00:33;;;;;;;;;;;15.90;99.90;;;;;;5035268;28;19913;-81
2022/07/22 02:02:58;;;;;;;;;;;15.90;99.90;;;;;;5035048;28;19916;-84
2022/07/22 02:05:24;;;;;;;;;;;16.00;99.90;;;;;;5033001;28;20023;-83
2022/07/22 02:07:50;;;;;;;;;;;16.00;99.90;;;;;;5024136;28;19914;-79
2022/07/22 02:10:16;;;;;;;;;;;16.00;99.90;;;;;;5030002;28;19923;-83
2022/07/22 02:12:41;;;;;;;;;;;15.90;99.90;;;;;;5033866;28;20275;-82
2022/07/22 02:15:08;;;;;;;;;;;15.90;99.90;;;;;;5033870;28;19963;-84
2022/07/22 02:17:34;;;;;;;;;;;15.90;99.90;;;;;;5034723;28;19909;-82
2022/07/22 02:20:00;;;;;;;;;;;16.00;99.90;;;;;;5033225;28;20008;-80
2022/07/22 02:22:25;;;;;;;;;;;16.10;99.90;;;;;;5034315;28;19940;-81
2022/07/22 02:24:51;;;;;;;;;;;16.10;99.90;;;;;;5034518;28;19916;-79
2022/07/22 02:27:16;;;;;;;;;;;16.10;99.90;;;;;;5021420;28;19917;-79
2022/07/22 02:29:42;;;;;;;;;;;16.10;99.90;;;;;;5035202;28;20403;-81
2022/07/22 02:32:07;;;;;;;;;;;16.10;99.90;;;;;;5041041;28;19909;-77
2022/07/22 02:34:33;;;;;;;;;;;16.10;99.90;;;;;;5040888;28;19917;-78
2022/07/22 02:36:59;;;;;;;;;;;16.20;99.90;;;;;;5041303;28;20193;-83
2022/07/22 02:39:24;;;;;;;;;;;16.20;99.90;;;;;;5040415;28;20248;-81
2022/07/22 02:41:50;;;;;;;;;;;16.20;99.90;;;;;;5040154;28;19913;-81
2022/07/22 02:44:15;;;;;;;;;;;16.10;99.90;;;;;;5040422;28;19924;-76
2022/07/22 02:46:41;;;;;;;;;;;16.10;99.90;;;;;;5041460;28;19920;-78
2022/07/22 02:49:06;;;;;;;;;;;16.20;99.90;;;;;;5039360;28;19913;-82
2022/07/22 02:51:32;;;;;;;;;;;16.20;99.90;;;;;;5040878;28;19909;-79
2022/07/22 02:53:57;;;;;;;;;;;16.30;99.90;;;;;;5041338;28;19913;-85
2022/07/22 02:56:23;;;;;;;;;;;16.20;99.90;;;;;;5038897;28;19952;-83
2022/07/22 02:58:51;;;;;;;;;;;16.00;99.90;;;;;;5040416;28;20260;-84
2022/07/22 03:01:17;;;;;;;;;;;16.00;99.90;;;;;;5039556;28;19914;-83
2022/07/22 03:03:43;;;;;;;;;;;15.90;99.90;;;;;;5039778;28;19913;-83
2022/07/22 03:06:08;;;;;;;;;;;15.90;99.90;;;;;;5041698;28;20007;-85
2022/07/22 03:08:34;;;;;;;;;;;15.90;99.90;;;;;;5043157;28;20032;-84
2022/07/22 03:10:59;;;;;;;;;;;15.90;99.90;;;;;;5040999;28;20548;-85
2022/07/22 03:13:25;;;;;;;;;;;15.80;99.90;;;;;;5039179;28;20285;-82
2022/07/22 03:15:51;;;;;;;;;;;15.90;99.90;;;;;;5041134;28;19929;-83
2022/07/22 03:18:16;;;;;;;;;;;15.80;99.90;;;;;;5040711;28;19909;-85
2022/07/22 03:20:42;;;;;;;;;;;15.90;99.90;;;;;;5040187;28;19956;-86
2022/07/22 03:23:07;;;;;;;;;;;15.90;99.90;;;;;;5041602;28;19975;-85
2022/07/22 03:25:33;;;;;;;;;;;15.90;99.90;;;;;;5039682;28;19995;-83
2022/07/22 03:27:59;;;;;;;;;;;15.90;99.90;;;;;;5041419;28;19944;-84
2022/07/22 03:30:25;;;;;;;;;;;15.90;99.90;;;;;;5040621;28;19917;-86
2022/07/22 03:32:50;;;;;;;;;;;15.90;99.90;;;;;;5040038;28;19991;-84
2022/07/22 03:35:16;;;;;;;;;;;15.80;99.90;;;;;;5040903;28;19921;-82
2022/07/22 03:37:42;;;;;;;;;;;15.80;99.90;;;;;;5040641;28;19917;-87
2022/07/22 03:40:08;;;;;;;;;;;15.90;99.90;;;;;;5041657;28;19909;-86
2022/07/22 03:42:33;;;;;;;;;;;15.90;99.90;;;;;;5035898;28;20263;-85
2022/07/22 03:44:59;;;;;;;;;;;16.00;99.90;;;;;;5044764;28;19913;-86
2022/07/22 03:47:25;;;;;;;;;;;16.00;99.90;;;;;;5045690;28;19928;-88
2022/07/22 03:49:50;;;;;;;;;;;16.00;99.90;;;;;;5036771;28;19909;-84
2022/07/22 03:52:16;;;;;;;;;;;16.00;99.90;;;;;;5038227;28;19909;-84
2022/07/22 03:54:42;;;;;;;;;;;15.90;99.90;;;;;;5035872;28;21431;-84
2022/07/22 03:57:08;;;;;;;;;;;15.90;99.90;;;;;;5036715;28;19987;-85
2022/07/22 03:59:34;;;;;;;;;;;15.90;99.90;;;;;;5037620;28;20185;-84
2022/07/22 04:01:59;;;;;;;;;;;15.90;99.90;;;;;;5037819;28;19909;-85
2022/07/22 04:04:25;;;;;;;;;;;16.00;99.90;;;;;;5036792;28;20372;-84
2022/07/22 04:06:53;;;;;;;;;;;16.10;99.90;;;;;;5035188;28;19940;-80
2022/07/22 04:09:19;;;;;;;;;;;16.10;99.90;;;;;;5037390;28;19917;-84
2022/07/22 04:11:44;;;;;;;;;;;16.20;99.90;;;;;;5037137;28;19920;-84
2022/07/22 04:14:10;;;;;;;;;;;16.10;99.90;;;;;;5037073;28;20208;-83
2022/07/22 04:16:36;;;;;;;;;;;16.10;99.90;;;;;;5035684;28;20320;-84
2022/07/22 04:19:02;;;;;;;;;;;16.10;99.90;;;;;;5037093;28;19916;-84
2022/07/22 04:21:28;;;;;;;;;;;16.00;99.90;;;;;;5037855;28;19916;-83
2022/07/22 04:23:54;;;;;;;;;;;16.00;99.90;;;;;;5036940;28;19911;-84
2022/07/22 04:26:19;;;;;;;;;;;16.10;99.90;;;;;;5041397;28;19958;-85
2022/07/22 04:28:45;;;;;;;;;;;16.10;99.90;;;;;;5043109;28;19974;-84
2022/07/22 04:31:11;;;;;;;;;;;16.10;99.90;;;;;;5036938;28;19909;-85
2022/07/22 04:33:37;;;;;;;;;;;16.00;99.90;;;;;;5036277;28;19917;-85
2022/07/22 04:36:02;;;;;;;;;;;16.00;99.90;;;;;;5036458;28;19932;-85
2022/07/22 04:38:28;;;;;;;;;;;16.00;99.90;;;;;;5036963;28;20308;-85
2022/07/22 04:40:53;;;;;;;;;;;16.00;99.90;;;;;;5036331;28;19952;-84
2022/07/22 04:43:19;;;;;;;;;;;16.10;99.90;;;;;;5035872;28;20388;-86
2022/07/22 04:45:44;;;;;;;;;;;16.00;99.90;;;;;;5036261;28;19913;-86
2022/07/22 04:48:10;;;;;;;;;;;16.00;99.90;;;;;;5036052;28;19913;-84
2022/07/22 04:50:36;;;;;;;;;;;16.00;99.90;;;;;;5037120;28;20003;-85
2022/07/22 04:53:02;;;;;;;;;;;16.00;99.90;;;;;;5034563;28;20301;-84
2022/07/22 04:55:27;;;;;;;;;;;16.00;99.90;;;;;;5035546;28;19913;-86
2022/07/22 04:57:53;;;;;;;;;;;16.00;99.90;;;;;;5035379;28;19920;-82
2022/07/22 05:00:18;;;;;;;;;;;16.00;99.90;;;;;;5035633;28;19935;-85
2022/07/22 05:02:44;;;;;;;;;;;16.10;99.90;;;;;;5034885;28;19913;-85
2022/07/22 05:05:10;;;;;;;;;;;16.10;99.90;;;;;;5016966;28;20336;-86
2022/07/22 05:07:35;;;;;;;;;;;16.10;99.90;;;;;;5030312;28;19917;-82
2022/07/22 05:10:01;;;;;;;;;;;16.20;99.90;;;;;;5035070;28;19917;-84
2022/07/22 05:12:26;;;;;;;;;;;16.10;99.90;;;;;;5034827;28;19913;-84
2022/07/22 05:14:52;;;;;;;;;;;16.10;99.90;;;;;;5034939;28;19920;-84
2022/07/22 05:17:17;;;;;;;;;;;16.20;99.90;;;;;;5022409;28;19925;-82
2022/07/22 05:19:43;;;;;;;;;;;16.20;99.90;;;;;;5036305;28;19914;-84
2022/07/22 05:22:08;;;;;;;;;;;16.20;99.90;;;;;;5035748;28;19909;-85
2022/07/22 05:24:34;;;;;;;;;;;16.30;99.90;;;;;;5034542;28;19957;-85
2022/07/22 05:27:00;;;;;;;;;;;16.30;99.90;;;;;;5036075;28;19920;-85
2022/07/22 05:29:25;;;;;;;;;;;16.30;99.90;;;;;;5035743;28;19920;-86
2022/07/22 05:31:51;;;;;;;;;;;16.40;99.90;;;;;;5035253;28;19916;-84
2022/07/22 05:34:16;;;;;;;;;;;16.40;99.90;;;;;;5035744;28;19927;-84
2022/07/22 05:36:42;;;;;;;;;;;16.30;99.90;;;;;;5035556;28;19935;-86
2022/07/22 05:39:08;;;;;;;;;;;16.30;99.90;;;;;;5035313;28;19959;-85
2022/07/22 05:41:33;;;;;;;;;;;16.40;99.90;;;;;;5035226;28;19959;-85
2022/07/22 05:43:59;;;;;;;;;;;16.40;99.90;;;;;;5034835;28;19999;-85
2022/07/22 05:46:24;;;;;;;;;;;16.40;99.90;;;;;;5033784;28;19925;-86
2022/07/22 05:48:50;;;;;;;;;;;16.40;99.90;;;;;;5038762;28;19913;-85
2022/07/22 05:51:16;;;;;;;;;;;16.50;99.90;;;;;;5033955;28;19985;-85
2022/07/22 05:53:42;;;;;;;;;;;16.40;99.90;;;;;;5035040;28;19924;-85
2022/07/22 05:56:08;;;;;;;;;;;16.40;99.90;;;;;;5034241;28;19917;-82
2022/07/22 05:58:34;;;;;;;;;;;16.50;99.90;;;;;;5033755;28;19917;-83
2022/07/22 06:01:00;;;;;;;;;;;16.50;99.90;;;;;;5036416;28;19921;-83
2022/07/22 06:03:25;;;;;;;;;;;16.40;99.90;;;;;;5037605;28;19939;-83
2022/07/22 06:05:51;;;;;;;;;;;16.50;99.90;;;;;;5035811;28;19932;-81
2022/07/22 06:08:17;;;;;;;;;;;16.50;99.90;;;;;;5034918;28;19962;-85
2022/07/22 06:10:42;;;;;;;;;;;16.50;99.90;;;;;;5036449;28;19920;-84
2022/07/22 06:13:08;;;;;;;;;;;16.50;99.90;;;;;;5035251;28;20012;-84
2022/07/22 06:15:34;;;;;;;;;;;16.50;99.90;;;;;;5036177;28;19932;-84
2022/07/22 06:17:59;;;;;;;;;;;16.60;99.90;;;;;;5036949;28;19917;-86
2022/07/22 06:20:25;;;;;;;;;;;16.60;99.90;;;;;;5018809;28;20275;-83
2022/07/22 06:22:50;;;;;;;;;;;16.60;99.90;;;;;;5036866;28;19914;-85
2022/07/22 06:25:16;;;;;;;;;;;16.60;99.90;;;;;;5038570;28;19921;-84
2022/07/22 06:27:41;;;;;;;;;;;16.80;99.90;;;;;;5037633;28;19913;-84
2022/07/22 06:30:08;;;;;;;;;;;16.80;99.90;;;;;;5033821;28;19968;-81
2022/07/22 06:32:33;;;;;;;;;;;16.80;99.90;;;;;;5034564;28;19929;-78
2022/07/22 06:34:59;;;;;;;;;;;17.00;99.90;;;;;;5033896;28;19933;-85
2022/07/22 06:37:24;;;;;;;;;;;17.00;99.90;;;;;;5033204;28;20232;-76
2022/07/22 06:39:50;;;;;;;;;;;17.00;99.90;;;;;;5036534;28;20296;-80
2022/07/22 06:42:15;;;;;;;;;;;17.00;99.90;;;;;;5035490;28;19917;-80
2022/07/22 06:44:41;;;;;;;;;;;17.00;99.90;;;;;;5035799;28;20380;-82
2022/07/22 06:47:07;;;;;;;;;;;17.10;99.90;;;;;;5045082;28;19917;-81
2022/07/22 06:49:32;;;;;;;;;;;17.20;99.90;;;;;;5045879;28;19913;-83
2022/07/22 06:51:58;;;;;;;;;;;17.10;99.90;;;;;;5053108;28;20020;-84
2022/07/22 06:54:23;;;;;;;;;;;17.00;99.90;;;;;;5049715;28;19916;-85
2022/07/22 06:56:49;;;;;;;;;;;17.00;99.90;;;;;;5048932;28;19909;-85
2022/07/22 06:59:14;;;;;;;;;;;17.10;99.90;;;;;;5046276;28;19958;-86
2022/07/22 07:01:40;;;;;;;;;;;17.00;99.90;;;;;;5046373;28;20012;-84
2022/07/22 07:04:05;;;;;;;;;;;17.10;99.90;;;;;;5046152;28;20259;-84
2022/07/22 07:06:31;;;;;;;;;;;17.10;99.90;;;;;;5048079;28;19913;-81
2022/07/22 07:08:57;;;;;;;;;;;17.20;99.90;;;;;;5046171;28;19964;-83
2022/07/22 07:11:23;;;;;;;;;;;17.30;99.90;;;;;;5048580;28;20017;-85
2022/07/22 07:13:48;;;;;;;;;;;17.30;99.90;;;;;;5038720;28;20004;-84
2022/07/22 07:16:14;;;;;;;;;;;17.30;99.90;;;;;;5051222;28;19927;-83
2022/07/22 07:18:39;;;;;;;;;;;17.30;99.90;;;;;;5051654;28;19913;-80
2022/07/22 07:21:05;;;;;;;;;;;17.40;99.90;;;;;;5045831;28;19920;-82
2022/07/22 07:23:31;;;;;;;;;;;17.40;99.90;;;;;;5047848;28;20203;-80
2022/07/22 07:25:56;;;;;;;;;;;17.60;99.90;;;;;;5045002;28;19970;-86
2022/07/22 07:28:22;;;;;;;;;;;17.70;99.90;;;;;;5052076;28;19917;-87
2022/07/22 07:30:47;;;;;;;;;;;17.60;99.90;;;;;;5051962;28;19954;-82
2022/07/22 07:33:13;;;;;;;;;;;17.50;99.90;;;;;;5052799;28;20004;-84
2022/07/22 07:35:39;;;;;;;;;;;17.50;99.90;;;;;;5048287;28;19910;-83
2022/07/22 07:38:05;;;;;;;;;;;17.60;99.90;;;;;;5045514;28;20312;-84
2022/07/22 07:40:30;;;;;;;;;;;17.60;99.90;;;;;;5041149;28;20272;-83
2022/07/22 07:42:56;;;;;;;;;;;17.70;99.90;;;;;;5046443;28;19960;-79
2022/07/22 07:45:21;;;;;;;;;;;17.60;99.90;;;;;;5038582;28;20379;-82
2022/07/22 07:47:47;;;;;;;;;;;17.50;99.90;;;;;;5036310;28;20278;-85
2022/07/22 07:50:13;;;;;;;;;;;17.50;99.90;;;;;;5037265;28;20003;-84
2022/07/22 07:52:39;;;;;;;;;;;17.50;99.90;;;;;;5036970;28;19920;-83
2022/07/22 07:55:06;;;;;;;;;;;17.50;99.90;;;;;;5035293;28;19925;-83
2022/07/22 07:57:32;;;;;;;;;;;17.50;99.90;;;;;;5035884;28;19913;-85
2022/07/22 07:59:57;;;;;;;;;;;17.50;99.90;;;;;;5036280;28;19913;-84
2022/07/22 08:02:23;;;;;;;;;;;17.60;99.90;;;;;;5035179;28;20000;-79
2022/07/22 08:04:48;;;;;;;;;;;17.80;99.90;;;;;;5032285;28;20342;-86
2022/07/22 08:07:14;;;;;;;;;;;17.90;99.90;;;;;;5027247;28;20288;-84
2022/07/22 08:09:40;;;;;;;;;;;17.90;99.90;;;;;;5028814;28;20300;-81
2022/07/22 08:12:06;;;;;;;;;;;17.90;99.90;;;;;;5034389;28;19929;-84
2022/07/22 08:14:31;;;;;;;;;;;17.90;99.90;;;;;;5036925;28;19924;-83
2022/07/22 08:16:57;;;;;;;;;;;17.80;99.90;;;;;;5037225;28;19947;-80
2022/07/22 08:19:26;;;;;;;;;;;18.00;99.90;;;;;;5034059;28;22181;-82
2022/07/22 08:21:52;;;;;;;;;;;18.10;99.90;;;;;;5035839;28;19917;-79
2022/07/22 08:24:17;;;;;;;;;;;18.10;99.90;;;;;;5040274;28;19913;-84
2022/07/22 08:26:43;;;;;;;;;;;18.20;99.90;;;;;;5039287;28;19969;-83
2022/07/22 08:29:09;;;;;;;;;;;18.20;99.90;;;;;;5036247;28;19967;-80
2022/07/22 08:31:35;;;;;;;;;;;18.20;99.90;;;;;;5038908;28;19916;-81
2022/07/22 08:34:04;;;;;;;;;;;18.10;99.90;;;;;;5025375;28;19921;-81
2022/07/22 08:36:30;;;;;;;;;;;18.10;99.90;;;;;;5040119;28;19913;-85
2022/07/22 08:38:56;;;;;;;;;;;18.10;99.90;;;;;;5048957;28;19982;-76
2022/07/22 08:41:22;;;;;;;;;;;18.10;99.90;;;;;;5041556;28;19913;-82
2022/07/22 08:43:48;;;;;;;;;;;18.00;99.90;;;;;;5036265;28;20197;-85
2022/07/22 08:46:13;;;;;;;;;;;17.90;99.90;;;;;;5036724;28;19917;-84
2022/07/22 08:48:39;;;;;;;;;;;17.90;99.90;;;;;;5034999;28;20004;-83
2022/07/22 08:51:05;;;;;;;;;;;18.00;99.90;;;;;;5034114;28;19924;-77
2022/07/22 08:53:30;;;;;;;;;;;17.90;99.90;;;;;;5035049;28;20054;-83
2022/07/22 08:55:56;;;;;;;;;;;18.00;99.90;;;;;;5037166;28;19917;-80
2022/07/22 08:58:21;;;;;;;;;;;18.00;99.90;;;;;;5034234;28;19949;-81
2022/07/22 09:01:03;;;;;;;;;;;18.10;99.90;;;;;;5032935;28;19928;-81
2022/07/22 09:03:28;;;;;;;;;;;18.20;99.90;;;;;;5033128;28;19932;-81
2022/07/22 09:05:54;;;;;;;;;;;18.40;99.90;;;;;;5034154;28;19921;-83
2022/07/22 09:08:20;;;;;;;;;;;18.40;99.90;;;;;;5034386;28;19917;-82
2022/07/22 09:10:46;;;;;;;;;;;18.40;99.90;;;;;;5033137;28;19923;-84
2022/07/22 09:13:11;;;;;;;;;;;18.70;99.90;;;;;;5033957;28;19913;-78
2022/07/22 09:15:41;;;;;;;;;;;18.60;99.90;;;;;;5033559;28;20299;-80
2022/07/22 09:18:06;;;;;;;;;;;18.70;99.90;;;;;;5033284;28;19921;-81
2022/07/22 09:20:33;;;;;;;;;;;18.90;99.90;;;;;;5034728;28;19913;-81
2022/07/22 09:22:58;;;;;;;;;;;19.10;99.90;;;;;;5034242;28;20227;-85
2022/07/22 09:25:25;;;;;;;;;;;19.00;99.90;;;;;;5034493;28;19924;-84
2022/07/22 09:27:52;;;;;;;;;;;18.90;99.90;;;;;;5035639;28;19913;-85
2022/07/22 09:30:21;;;;;;;;;;;18.90;99.90;;;;;;5033321;28;20007;-79
2022/07/22 09:32:48;;;;;;;;;;;18.80;99.90;;;;;;5033585;28;19917;-80
2022/07/22 09:35:14;;;;;;;;;;;19.00;99.90;;;;;;5035005;28;20007;-81
2022/07/22 09:37:56;;;;;;;;;;;18.90;99.90;;;;;;5033342;28;20071;-82
2022/07/22 09:40:29;;;;;;;;;;;19.20;99.90;;;;;;5033263;28;20343;-80
2022/07/22 09:42:55;;;;;;;;;;;19.50;99.90;;;;;;5033790;28;19924;-77
2022/07/22 09:45:22;;;;;;;;;;;19.50;99.90;;;;;;5033769;28;19917;-81
2022/07/22 09:47:48;;;;;;;;;;;19.50;99.90;;;;;;5033587;28;19921;-78
2022/07/22 09:50:14;;;;;;;;;;;19.50;99.90;;;;;;5030744;28;20316;-80
2022/07/22 09:52:40;;;;;;;;;;;19.50;99.90;;;;;;5033055;28;19917;-79
2022/07/22 09:55:06;;;;;;;;;;;19.40;99.90;;;;;;5033719;28;19917;-79
2022/07/22 09:57:32;;;;;;;;;;;19.50;99.90;;;;;;5031167;28;19924;-78
2022/07/22 09:59:57;;;;;;;;;;;19.60;99.90;;;;;;5033544;28;19913;-79
2022/07/22 10:02:23;;;;;;;;;;;19.70;99.90;;;;;;5033109;28;19913;-79
2022/07/22 10:04:49;;;;;;;;;;;19.80;99.90;;;;;;5033379;28;19983;-79
2022/07/22 10:07:15;;;;;;;;;;;19.90;99.90;;;;;;5029716;28;19921;-78
2022/07/22 10:09:45;;;;;;;;;;;20.30;99.40;;;;;;5034000;28;19913;-81
2022/07/22 10:12:11;;;;;;;;;;;20.80;99.90;;;;;;5035272;28;20327;-84
2022/07/22 10:14:37;;;;;;;;;;;20.80;97.80;;;;;;5032355;28;19921;-81
2022/07/22 10:17:03;;;;;;;;;;;21.00;98.30;;;;;;5034459;28;20320;-83
2022/07/22 10:19:29;;;;;;;;;;;21.20;97.90;;;;;;5033923;28;19913;-83
2022/07/22 10:21:54;;;;;;;;;;;21.00;99.20;;;;;;5037851;28;19971;-81
2022/07/22 10:24:26;;;;;;;;;;;20.90;99.10;;;;;;5035350;28;20395;-80
2022/07/22 10:26:55;;;;;;;;;;;20.50;98.30;;;;;;5039219;28;19916;-82
2022/07/22 10:29:29;;;;;;;;;;;20.60;98.20;;;;;;5035840;28;19949;-84
2022/07/22 10:32:13;;;;;;;;;;;20.60;99.10;;;;;;5046922;28;19917;-83
2022/07/22 10:34:39;;;;;;;;;;;20.20;99.40;;;;;;5033480;28;19924;-84
2022/07/22 10:37:24;;;;;;;;;;;19.90;99.90;;;;;;5034259;28;19913;-80
2022/07/22 10:40:16;;;;;;;;;;;19.70;99.10;;;;;;5032672;28;19939;-83
2022/07/22 10:43:00;;;;;;;;;;;19.70;99.80;;;;;;5028494;28;20317;-82
2022/07/22 10:45:33;;;;;;;;;;;19.90;99.90;;;;;;5029216;28;19921;-85
2022/07/22 10:48:07;;;;;;;;;;;19.80;99.80;;;;;;5025851;28;19974;-84
2022/07/22 10:50:39;;;;;;;;;;;19.60;99.90;;;;;;5033023;28;20312;-83
2022/07/22 10:53:06;;;;;;;;;;;19.50;99.90;;;;;;5037067;28;19979;-82
2022/07/22 10:55:31;;;;;;;;;;;19.40;99.90;;;;;;5037638;28;20098;-78
2022/07/22 10:57:58;;;;;;;;;;;19.50;99.90;;;;;;5037118;28;19999;-84
2022/07/22 11:00:23;;;;;;;;;;;19.60;99.90;;;;;;5038403;28;20205;-83
2022/07/22 11:02:49;;;;;;;;;;;19.60;99.90;;;;;;5041550;28;19917;-81
2022/07/22 11:05:24;;;;;;;;;;;19.50;99.90;;;;;;5035814;28;19927;-87
2022/07/22 11:07:49;;;;;;;;;;;19.60;99.90;;;;;;5042726;28;19932;-83
2022/07/22 11:10:16;;;;;;;;;;;19.40;99.90;;;;;;5036679;28;20015;-84
2022/07/22 11:12:41;;;;;;;;;;;19.30;99.90;;;;;;5039232;28;19948;-82
2022/07/22 11:15:07;;;;;;;;;;;19.30;99.90;;;;;;5037306;28;20336;-81
2022/07/22 11:17:36;;;;;;;;;;;19.60;99.90;;;;;;5035777;28;19998;-82
2022/07/22 11:20:04;;;;;;;;;;;19.50;99.90;;;;;;5035137;28;19921;-82
2022/07/22 11:22:30;;;;;;;;;;;19.50;99.90;;;;;;5032934;28;19917;-82
2022/07/22 11:24:55;;;;;;;;;;;19.60;99.90;;;;;;5034791;28;19928;-89
2022/07/22 11:27:25;;;;;;;;;;;19.60;99.90;;;;;;5035168;28;20278;-80
2022/07/22 11:29:54;;;;;;;;;;;19.90;99.90;;;;;;5036445;28;19913;-79
2022/07/22 11:32:21;;;;;;;;;;;20.00;99.90;;;;;;5041075;28;19914;-82
2022/07/22 11:34:47;;;;;;;;;;;20.20;99.90;;;;;;5036731;28;19960;-80
2022/07/22 11:37:13;;;;;;;;;;;19.90;99.90;;;;;;5052492;28;20411;-80
2022/07/22 11:39:38;;;;;;;;;;;20.20;99.90;;;;;;5036310;28;19983;-80
2022/07/22 11:42:04;;;;;;;;;;;20.40;99.90;;;;;;5034026;28;20369;-81
2022/07/22 11:44:32;;;;;;;;;;;20.50;99.90;;;;;;5033947;28;19961;-77
2022/07/22 11:46:59;;;;;;;;;;;20.60;99.90;;;;;;5033295;28;19925;-88
2022/07/22 11:49:25;;;;;;;;;;;20.50;99.90;;;;;;5034349;28;20339;-79
2022/07/22 11:51:51;;;;;;;;;;;20.60;99.90;;;;;;5036655;28;19971;-83
2022/07/22 11:54:17;;;;;;;;;;;20.50;99.90;;;;;;5038410;28;19925;-82
2022/07/22 11:56:42;;;;;;;;;;;20.50;99.90;;;;;;5033971;28;19956;-80
2022/07/22 11:59:12;;;;;;;;;;;20.90;99.70;;;;;;5039384;28;19917;-81
2022/07/22 12:01:37;;;;;;;;;;;21.00;99.80;;;;;;5036903;28;19956;-82
2022/07/22 12:04:04;;;;;;;;;;;20.90;98.50;;;;;;5036476;28;19956;-87
2022/07/22 12:06:33;;;;;;;;;;;20.90;99.90;;;;;;5033299;28;20324;-82
2022/07/22 12:09:10;;;;;;;;;;;20.90;98.10;;;;;;5034965;28;19916;-82
2022/07/22 12:11:37;;;;;;;;;;;20.80;99.90;;;;;;5030972;28;20299;-93
2022/07/22 12:14:15;;;;;;;;;;;20.80;99.00;;;;;;5030307;28;20064;-78
2022/07/22 12:16:42;;;;;;;;;;;20.60;99.40;;;;;;5030886;28;19932;-78
2022/07/22 12:19:12;;;;;;;;;;;20.50;98.70;;;;;;5034068;28;19917;-78
2022/07/22 12:21:58;;;;;;;;;;;20.70;99.90;;;;;;5034818;28;19921;-80
2022/07/22 12:24:34;;;;;;;;;;;20.70;99.90;;;;;;5033775;28;19924;-77
2022/07/22 12:27:13;;;;;;;;;;;20.60;99.90;;;;;;5033283;28;19920;-77
2022/07/22 12:29:38;;;;;;;;;;;20.70;99.90;;;;;;5034776;28;19921;-95
2022/07/22 12:32:07;;;;;;;;;;;20.50;99.90;;;;;;5036549;28;19913;-82
2022/07/22 12:34:33;;;;;;;;;;;20.40;99.90;;;;;;5031422;28;19936;-76
2022/07/22 12:37:02;;;;;;;;;;;20.60;99.90;;;;;;5036443;28;19932;-79
2022/07/22 12:39:27;;;;;;;;;;;20.70;99.90;;;;;;5035952;28;19928;-79
2022/07/22 12:41:54;;;;;;;;;;;20.70;99.90;;;;;;5038167;28;19913;-80
2022/07/22 12:44:24;;;;;;;;;;;20.60;99.60;;;;;;5037283;28;20054;-82
2022/07/22 12:46:52;;;;;;;;;;;20.50;99.90;;;;;;5037910;28;19940;-81
2022/07/22 12:49:19;;;;;;;;;;;20.20;99.20;;;;;;5037350;28;19913;-78
2022/07/22 12:52:03;;;;;;;;;;;20.10;99.40;;;;;;5033234;28;19956;-82
2022/07/22 12:54:29;;;;;;;;;;;20.20;99.90;;;;;;5033871;28;19928;-78
2022/07/22 12:56:55;;;;;;;;;;;20.10;99.90;;;;;;5033930;28;19917;-79
2022/07/22 12:59:21;;;;;;;;;;;20.00;99.90;;;;;;5034035;28;19913;-79
2022/07/22 13:01:48;;;;;;;;;;;20.10;99.90;;;;;;5032802;28;20005;-81
2022/07/22 13:04:14;;;;;;;;;;;20.20;99.90;;;;;;5034893;28;19952;-80
2022/07/22 13:06:39;;;;;;;;;;;20.10;99.90;;;;;;5038171;28;19953;-80
2022/07/22 13:09:05;;;;;;;;;;;20.10;99.90;;;;;;5037297;28;20056;-80
2022/07/22 13:11:31;;;;;;;;;;;20.10;99.90;;;;;;5038970;28;19928;-79
2022/07/22 13:13:56;;;;;;;;;;;20.20;99.90;;;;;;5033296;28;19917;-79
2022/07/22 13:16:23;;;;;;;;;;;20.30;99.90;;;;;;5047746;28;19940;-78
2022/07/22 13:18:50;;;;;;;;;;;20.30;99.90;;;;;;5051529;28;19991;-80
2022/07/22 13:21:15;;;;;;;;;;;20.20;99.90;;;;;;5050708;28;19913;-83
2022/07/22 13:23:41;;;;;;;;;;;20.40;99.90;;;;;;5047891;28;19923;-80
2022/07/22 13:26:06;;;;;;;;;;;20.50;99.90;;;;;;5038488;28;19917;-81
2022/07/22 13:28:32;;;;;;;;;;;20.60;99.90;;;;;;5041765;28;19917;-80
2022/07/22 13:30:57;;;;;;;;;;;20.70;98.90;;;;;;5046965;28;20011;-81
2022/07/22 13:33:23;;;;;;;;;;;20.70;99.20;;;;;;5037493;28;19921;-79
2022/07/22 13:35:48;;;;;;;;;;;20.70;99.40;;;;;;5034322;28;19909;-82
2022/07/22 13:38:16;;;;;;;;;;;20.60;99.90;;;;;;5034570;28;20466;-82
2022/07/22 13:40:42;;;;;;;;;;;20.40;99.90;;;;;;5035799;28;19916;-80
2022/07/22 13:43:08;;;;;;;;;;;20.30;99.90;;;;;;5033462;28;20005;-81
2022/07/22 13:45:33;;;;;;;;;;;20.50;99.90;;;;;;5035256;28;19992;-80
2022/07/22 13:47:59;;;;;;;;;;;20.40;99.90;;;;;;5033501;28;19921;-75
2022/07/22 13:50:24;;;;;;;;;;;20.40;99.90;;;;;;5035386;28;19917;-83
2022/07/22 13:52:50;;;;;;;;;;;20.50;99.90;;;;;;5034872;28;20253;-78
2022/07/22 13:55:16;;;;;;;;;;;20.30;99.60;;;;;;5035081;28;19909;-80
2022/07/22 13:57:42;;;;;;;;;;;20.30;99.90;;;;;;5034948;28;20385;-82
2022/07/22 14:00:08;;;;;;;;;;;20.20;99.90;;;;;;5038052;28;19928;-81
2022/07/22 14:02:33;;;;;;;;;;;20.20;99.90;;;;;;5033738;28;20010;-81
2022/07/22 14:04:59;;;;;;;;;;;20.40;99.90;;;;;;5034482;28;19975;-80
2022/07/22 14:07:24;;;;;;;;;;;20.50;99.90;;;;;;5025823;28;20369;-82
2022/07/22 14:09:50;;;;;;;;;;;20.20;99.90;;;;;;5030799;28;19909;-83
2022/07/22 14:12:16;;;;;;;;;;;20.10;99.90;;;;;;5035379;28;19916;-80